sensor_id;sensor_type;location;lat;lon;timestamp;P1;durP1;ratioP1;P2;durP2;ratioP2
67162;SDS011;54092;53.088;8.850;2023-06-26T00:01:57;13.40;;;8.82;;
67162;SDS011;54092;53.088;8.850;2023-06-26T00:04:22;10.90;;;8.40;;
67162;SDS011;54092;53.088;8.850;2023-06-26T00:06:48;11.63;;;8.68;;
67162;SDS011;54092;53.088;8.850;2023-06-26T00:09:13;13.23;;;8.48;;
67162;SDS011;54092;53.088;8.850;2023-06-26T00:11:39;11.90;;;8.45;;
67162;SDS011;54092;53.088;8.850;2023-06-26T00:14:04;10.77;;;8.73;;
67162;SDS011;54092;53.088;8.850;2023-06-26T00:16:31;13.85;;;9.80;;
67162;SDS011;54092;53.088;8.850;2023-06-26T00:18:56;12.35;;;8.77;;
67162;SDS011;54092;53.088;8.850;2023-06-26T00:21:23;12.05;;;9.07;;
67162;SDS011;54092;53.088;8.850;2023-06-26T00:23:49;11.68;;;9.10;;
67162;SDS011;54092;53.088;8.850;2023-06-26T00:26:15;14.52;;;9.38;;
67162;SDS011;54092;53.088;8.850;2023-06-26T00:28:40;12.38;;;10.02;;
67162;SDS011;54092;53.088;8.850;2023-06-26T00:31:06;13.35;;;9.55;;
67162;SDS011;54092;53.088;8.850;2023-06-26T00:33:31;11.40;;;8.95;;
67162;SDS011;54092;53.088;8.850;2023-06-26T00:35:57;13.77;;;9.10;;
67162;SDS011;54092;53.088;8.850;2023-06-26T00:38:22;12.50;;;8.68;;
67162;SDS011;54092;53.088;8.850;2023-06-26T00:40:48;12.20;;;9.60;;
67162;SDS011;54092;53.088;8.850;2023-06-26T00:43:14;12.30;;;9.43;;
67162;SDS011;54092;53.088;8.850;2023-06-26T00:45:39;13.25;;;9.15;;
67162;SDS011;54092;53.088;8.850;2023-06-26T00:48:05;12.98;;;9.55;;
67162;SDS011;54092;53.088;8.850;2023-06-26T00:50:30;16.00;;;10.30;;
67162;SDS011;54092;53.088;8.850;2023-06-26T00:52:57;14.20;;;10.20;;
67162;SDS011;54092;53.088;8.850;2023-06-26T00:55:25;12.85;;;9.85;;
67162;SDS011;54092;53.088;8.850;2023-06-26T00:57:51;11.18;;;9.23;;
67162;SDS011;54092;53.088;8.850;2023-06-26T01:00:17;12.43;;;9.80;;
67162;SDS011;54092;53.088;8.850;2023-06-26T01:02:43;13.05;;;9.35;;
67162;SDS011;54092;53.088;8.850;2023-06-26T01:05:09;12.18;;;9.07;;
67162;SDS011;54092;53.088;8.850;2023-06-26T01:07:37;13.25;;;9.90;;
67162;SDS011;54092;53.088;8.850;2023-06-26T01:10:04;12.20;;;9.30;;
67162;SDS011;54092;53.088;8.850;2023-06-26T01:12:31;11.68;;;9.50;;
67162;SDS011;54092;53.088;8.850;2023-06-26T01:14:58;10.65;;;8.85;;
67162;SDS011;54092;53.088;8.850;2023-06-26T01:22:25;13.07;;;9.93;;
67162;SDS011;54092;53.088;8.850;2023-06-26T01:27:54;13.70;;;10.48;;
67162;SDS011;54092;53.088;8.850;2023-06-26T01:30:21;13.65;;;10.40;;
67162;SDS011;54092;53.088;8.850;2023-06-26T01:32:48;15.23;;;10.25;;
67162;SDS011;54092;53.088;8.850;2023-06-26T01:35:14;13.02;;;10.07;;
67162;SDS011;54092;53.088;8.850;2023-06-26T01:37:40;13.00;;;9.40;;
67162;SDS011;54092;53.088;8.850;2023-06-26T01:40:06;13.23;;;10.07;;
67162;SDS011;54092;53.088;8.850;2023-06-26T01:42:33;13.02;;;10.20;;
67162;SDS011;54092;53.088;8.850;2023-06-26T01:45:01;13.63;;;10.50;;
67162;SDS011;54092;53.088;8.850;2023-06-26T01:47:49;13.88;;;10.13;;
67162;SDS011;54092;53.088;8.850;2023-06-26T01:50:17;14.65;;;10.15;;
67162;SDS011;54092;53.088;8.850;2023-06-26T01:52:58;14.88;;;9.75;;
67162;SDS011;54092;53.088;8.850;2023-06-26T01:58:12;13.38;;;10.60;;
67162;SDS011;54092;53.088;8.850;2023-06-26T02:00:39;14.60;;;10.70;;
67162;SDS011;54092;53.088;8.850;2023-06-26T02:03:05;13.18;;;10.35;;
67162;SDS011;54092;53.088;8.850;2023-06-26T02:05:31;12.95;;;10.05;;
67162;SDS011;54092;53.088;8.850;2023-06-26T02:07:57;15.18;;;10.70;;
67162;SDS011;54092;53.088;8.850;2023-06-26T02:10:23;13.25;;;10.05;;
67162;SDS011;54092;53.088;8.850;2023-06-26T02:12:48;12.90;;;10.48;;
67162;SDS011;54092;53.088;8.850;2023-06-26T02:15:14;12.77;;;10.30;;
67162;SDS011;54092;53.088;8.850;2023-06-26T02:17:39;13.85;;;10.40;;
67162;SDS011;54092;53.088;8.850;2023-06-26T02:20:05;13.63;;;10.30;;
67162;SDS011;54092;53.088;8.850;2023-06-26T02:22:32;14.18;;;10.32;;
67162;SDS011;54092;53.088;8.850;2023-06-26T02:24:58;13.38;;;9.68;;
67162;SDS011;54092;53.088;8.850;2023-06-26T02:27:23;12.65;;;10.20;;
67162;SDS011;54092;53.088;8.850;2023-06-26T02:29:49;14.75;;;10.95;;
67162;SDS011;54092;53.088;8.850;2023-06-26T02:32:14;14.93;;;10.60;;
67162;SDS011;54092;53.088;8.850;2023-06-26T02:34:40;12.27;;;9.88;;
67162;SDS011;54092;53.088;8.850;2023-06-26T02:37:05;13.90;;;10.60;;
67162;SDS011;54092;53.088;8.850;2023-06-26T02:39:32;13.68;;;10.82;;
67162;SDS011;54092;53.088;8.850;2023-06-26T02:41:58;14.63;;;10.40;;
67162;SDS011;54092;53.088;8.850;2023-06-26T02:44:24;15.23;;;11.00;;
67162;SDS011;54092;53.088;8.850;2023-06-26T02:46:49;15.50;;;10.77;;
67162;SDS011;54092;53.088;8.850;2023-06-26T02:49:15;14.95;;;11.07;;
67162;SDS011;54092;53.088;8.850;2023-06-26T02:51:40;15.55;;;10.60;;
67162;SDS011;54092;53.088;8.850;2023-06-26T02:54:06;14.20;;;10.25;;
67162;SDS011;54092;53.088;8.850;2023-06-26T02:56:31;14.90;;;10.98;;
67162;SDS011;54092;53.088;8.850;2023-06-26T02:58:57;14.15;;;10.25;;
67162;SDS011;54092;53.088;8.850;2023-06-26T03:01:23;13.15;;;10.65;;
67162;SDS011;54092;53.088;8.850;2023-06-26T03:03:48;16.40;;;10.57;;
67162;SDS011;54092;53.088;8.850;2023-06-26T03:06:14;14.00;;;11.10;;
67162;SDS011;54092;53.088;8.850;2023-06-26T03:08:40;15.60;;;11.25;;
67162;SDS011;54092;53.088;8.850;2023-06-26T03:11:06;15.35;;;10.32;;
67162;SDS011;54092;53.088;8.850;2023-06-26T03:13:33;15.38;;;10.27;;
67162;SDS011;54092;53.088;8.850;2023-06-26T03:15:59;13.73;;;10.90;;
67162;SDS011;54092;53.088;8.850;2023-06-26T03:18:25;13.63;;;10.93;;
67162;SDS011;54092;53.088;8.850;2023-06-26T03:20:51;14.88;;;9.65;;
67162;SDS011;54092;53.088;8.850;2023-06-26T03:23:19;13.38;;;10.35;;
67162;SDS011;54092;53.088;8.850;2023-06-26T03:25:45;15.45;;;10.35;;
67162;SDS011;54092;53.088;8.850;2023-06-26T03:28:10;11.43;;;9.65;;
67162;SDS011;54092;53.088;8.850;2023-06-26T03:30:36;14.40;;;10.38;;
67162;SDS011;54092;53.088;8.850;2023-06-26T03:33:01;13.68;;;10.52;;
67162;SDS011;54092;53.088;8.850;2023-06-26T03:35:27;13.27;;;10.70;;
67162;SDS011;54092;53.088;8.850;2023-06-26T03:37:52;13.70;;;10.23;;
67162;SDS011;54092;53.088;8.850;2023-06-26T03:40:18;14.60;;;10.07;;
67162;SDS011;54092;53.088;8.850;2023-06-26T03:42:43;12.02;;;9.90;;
67162;SDS011;54092;53.088;8.850;2023-06-26T03:45:09;12.93;;;10.30;;
67162;SDS011;54092;53.088;8.850;2023-06-26T03:47:34;15.20;;;10.02;;
67162;SDS011;54092;53.088;8.850;2023-06-26T03:50:00;14.50;;;10.43;;
67162;SDS011;54092;53.088;8.850;2023-06-26T03:52:25;13.77;;;10.25;;
67162;SDS011;54092;53.088;8.850;2023-06-26T03:54:51;13.15;;;10.07;;
67162;SDS011;54092;53.088;8.850;2023-06-26T03:57:16;17.45;;;10.35;;
67162;SDS011;54092;53.088;8.850;2023-06-26T03:59:42;14.73;;;10.35;;
67162;SDS011;54092;53.088;8.850;2023-06-26T04:02:07;16.42;;;10.40;;
67162;SDS011;54092;53.088;8.850;2023-06-26T04:04:33;13.93;;;9.85;;
67162;SDS011;54092;53.088;8.850;2023-06-26T04:06:58;12.98;;;10.10;;
67162;SDS011;54092;53.088;8.850;2023-06-26T04:09:24;16.30;;;10.32;;
67162;SDS011;54092;53.088;8.850;2023-06-26T04:11:50;14.35;;;10.02;;
67162;SDS011;54092;53.088;8.850;2023-06-26T04:14:16;16.10;;;10.57;;
67162;SDS011;54092;53.088;8.850;2023-06-26T04:16:41;14.85;;;9.95;;
67162;SDS011;54092;53.088;8.850;2023-06-26T04:19:07;17.20;;;10.63;;
67162;SDS011;54092;53.088;8.850;2023-06-26T04:21:34;15.38;;;10.10;;
67162;SDS011;54092;53.088;8.850;2023-06-26T04:24:00;14.43;;;10.00;;
67162;SDS011;54092;53.088;8.850;2023-06-26T04:26:26;15.02;;;10.10;;
67162;SDS011;54092;53.088;8.850;2023-06-26T04:28:52;14.50;;;9.52;;
67162;SDS011;54092;53.088;8.850;2023-06-26T04:31:18;12.82;;;8.93;;
67162;SDS011;54092;53.088;8.850;2023-06-26T04:33:44;14.68;;;9.32;;
67162;SDS011;54092;53.088;8.850;2023-06-26T04:36:09;13.60;;;9.38;;
67162;SDS011;54092;53.088;8.850;2023-06-26T04:38:36;12.95;;;9.48;;
67162;SDS011;54092;53.088;8.850;2023-06-26T04:41:01;12.55;;;8.95;;
67162;SDS011;54092;53.088;8.850;2023-06-26T04:43:27;15.48;;;9.48;;
67162;SDS011;54092;53.088;8.850;2023-06-26T04:45:53;12.95;;;8.60;;
67162;SDS011;54092;53.088;8.850;2023-06-26T04:48:18;11.88;;;8.63;;
67162;SDS011;54092;53.088;8.850;2023-06-26T04:50:44;13.35;;;9.32;;
67162;SDS011;54092;53.088;8.850;2023-06-26T04:53:18;14.13;;;9.27;;
67162;SDS011;54092;53.088;8.850;2023-06-26T04:58:16;14.27;;;9.40;;
67162;SDS011;54092;53.088;8.850;2023-06-26T05:00:42;15.32;;;9.23;;
67162;SDS011;54092;53.088;8.850;2023-06-26T05:03:11;14.10;;;9.27;;
67162;SDS011;54092;53.088;8.850;2023-06-26T05:05:38;14.95;;;9.93;;
67162;SDS011;54092;53.088;8.850;2023-06-26T05:08:13;13.93;;;9.48;;
67162;SDS011;54092;53.088;8.850;2023-06-26T05:10:39;15.77;;;9.68;;
67162;SDS011;54092;53.088;8.850;2023-06-26T05:13:05;15.27;;;9.55;;
67162;SDS011;54092;53.088;8.850;2023-06-26T05:15:30;10.90;;;8.57;;
67162;SDS011;54092;53.088;8.850;2023-06-26T05:17:56;15.20;;;10.13;;
67162;SDS011;54092;53.088;8.850;2023-06-26T05:20:21;12.50;;;9.27;;
67162;SDS011;54092;53.088;8.850;2023-06-26T05:22:47;13.23;;;9.38;;
67162;SDS011;54092;53.088;8.850;2023-06-26T05:25:12;12.40;;;8.68;;
67162;SDS011;54092;53.088;8.850;2023-06-26T05:27:39;11.95;;;8.85;;
67162;SDS011;54092;53.088;8.850;2023-06-26T05:30:05;12.82;;;8.85;;
67162;SDS011;54092;53.088;8.850;2023-06-26T05:32:31;12.40;;;8.88;;
67162;SDS011;54092;53.088;8.850;2023-06-26T05:35:00;13.30;;;8.95;;
67162;SDS011;54092;53.088;8.850;2023-06-26T05:37:28;12.20;;;8.30;;
67162;SDS011;54092;53.088;8.850;2023-06-26T05:39:55;16.65;;;9.23;;
67162;SDS011;54092;53.088;8.850;2023-06-26T05:42:21;11.93;;;9.02;;
67162;SDS011;54092;53.088;8.850;2023-06-26T05:44:47;14.52;;;8.70;;
67162;SDS011;54092;53.088;8.850;2023-06-26T05:47:13;11.20;;;8.73;;
67162;SDS011;54092;53.088;8.850;2023-06-26T05:49:38;13.60;;;8.27;;
67162;SDS011;54092;53.088;8.850;2023-06-26T05:52:04;11.68;;;8.07;;
67162;SDS011;54092;53.088;8.850;2023-06-26T05:54:29;13.57;;;8.82;;
67162;SDS011;54092;53.088;8.850;2023-06-26T05:56:58;11.52;;;8.32;;
67162;SDS011;54092;53.088;8.850;2023-06-26T05:59:24;14.27;;;8.48;;
67162;SDS011;54092;53.088;8.850;2023-06-26T06:01:51;13.90;;;9.00;;
67162;SDS011;54092;53.088;8.850;2023-06-26T06:04:17;12.10;;;7.93;;
67162;SDS011;54092;53.088;8.850;2023-06-26T06:06:43;11.57;;;8.52;;
67162;SDS011;54092;53.088;8.850;2023-06-26T06:09:08;12.15;;;8.00;;
67162;SDS011;54092;53.088;8.850;2023-06-26T06:11:34;11.70;;;7.88;;
67162;SDS011;54092;53.088;8.850;2023-06-26T06:13:59;12.18;;;7.78;;
67162;SDS011;54092;53.088;8.850;2023-06-26T06:16:25;14.60;;;7.75;;
67162;SDS011;54092;53.088;8.850;2023-06-26T06:18:53;11.55;;;7.97;;
67162;SDS011;54092;53.088;8.850;2023-06-26T06:21:19;12.32;;;7.70;;
67162;SDS011;54092;53.088;8.850;2023-06-26T06:23:45;13.48;;;7.82;;
67162;SDS011;54092;53.088;8.850;2023-06-26T06:26:10;12.65;;;7.75;;
67162;SDS011;54092;53.088;8.850;2023-06-26T06:28:36;11.77;;;7.78;;
67162;SDS011;54092;53.088;8.850;2023-06-26T06:31:01;12.15;;;7.82;;
67162;SDS011;54092;53.088;8.850;2023-06-26T06:33:27;11.10;;;7.10;;
67162;SDS011;54092;53.088;8.850;2023-06-26T06:35:53;11.25;;;7.75;;
67162;SDS011;54092;53.088;8.850;2023-06-26T06:38:18;10.63;;;7.80;;
67162;SDS011;54092;53.088;8.850;2023-06-26T06:40:44;10.65;;;8.32;;
67162;SDS011;54092;53.088;8.850;2023-06-26T06:43:09;12.02;;;8.68;;
67162;SDS011;54092;53.088;8.850;2023-06-26T06:45:35;13.07;;;7.80;;
67162;SDS011;54092;53.088;8.850;2023-06-26T06:48:02;13.30;;;8.82;;
67162;SDS011;54092;53.088;8.850;2023-06-26T06:50:28;13.35;;;8.90;;
67162;SDS011;54092;53.088;8.850;2023-06-26T06:52:54;12.90;;;8.38;;
67162;SDS011;54092;53.088;8.850;2023-06-26T06:55:19;12.80;;;8.98;;
67162;SDS011;54092;53.088;8.850;2023-06-26T06:57:45;10.88;;;8.30;;
67162;SDS011;54092;53.088;8.850;2023-06-26T07:00:11;12.95;;;8.73;;
67162;SDS011;54092;53.088;8.850;2023-06-26T07:02:39;16.20;;;9.27;;
67162;SDS011;54092;53.088;8.850;2023-06-26T07:05:07;14.95;;;9.32;;
67162;SDS011;54092;53.088;8.850;2023-06-26T07:07:33;12.13;;;8.52;;
67162;SDS011;54092;53.088;8.850;2023-06-26T07:10:03;15.02;;;9.48;;
67162;SDS011;54092;53.088;8.850;2023-06-26T07:12:28;13.75;;;9.23;;
67162;SDS011;54092;53.088;8.850;2023-06-26T07:14:55;13.60;;;9.93;;
67162;SDS011;54092;53.088;8.850;2023-06-26T07:17:21;14.75;;;10.18;;
67162;SDS011;54092;53.088;8.850;2023-06-26T07:19:47;13.88;;;9.63;;
67162;SDS011;54092;53.088;8.850;2023-06-26T07:22:13;13.23;;;10.18;;
67162;SDS011;54092;53.088;8.850;2023-06-26T07:24:38;13.10;;;10.07;;
67162;SDS011;54092;53.088;8.850;2023-06-26T07:27:04;15.45;;;10.93;;
67162;SDS011;54092;53.088;8.850;2023-06-26T07:29:30;18.58;;;11.25;;
67162;SDS011;54092;53.088;8.850;2023-06-26T07:31:55;15.68;;;11.02;;
67162;SDS011;54092;53.088;8.850;2023-06-26T07:34:21;15.23;;;10.68;;
67162;SDS011;54092;53.088;8.850;2023-06-26T07:36:46;12.70;;;10.27;;
67162;SDS011;54092;53.088;8.850;2023-06-26T07:39:12;14.93;;;10.75;;
67162;SDS011;54092;53.088;8.850;2023-06-26T07:41:37;13.65;;;9.80;;
67162;SDS011;54092;53.088;8.850;2023-06-26T07:44:03;14.02;;;9.32;;
67162;SDS011;54092;53.088;8.850;2023-06-26T07:46:28;14.05;;;9.20;;
67162;SDS011;54092;53.088;8.850;2023-06-26T07:48:54;15.07;;;8.43;;
67162;SDS011;54092;53.088;8.850;2023-06-26T07:51:20;13.82;;;8.70;;
67162;SDS011;54092;53.088;8.850;2023-06-26T07:53:46;13.68;;;8.05;;
67162;SDS011;54092;53.088;8.850;2023-06-26T07:56:11;12.63;;;8.70;;
67162;SDS011;54092;53.088;8.850;2023-06-26T07:58:37;12.82;;;8.77;;
67162;SDS011;54092;53.088;8.850;2023-06-26T08:01:02;13.77;;;8.50;;
67162;SDS011;54092;53.088;8.850;2023-06-26T08:03:28;14.32;;;8.50;;
67162;SDS011;54092;53.088;8.850;2023-06-26T08:05:53;13.00;;;8.70;;
67162;SDS011;54092;53.088;8.850;2023-06-26T08:08:19;14.10;;;9.20;;
67162;SDS011;54092;53.088;8.850;2023-06-26T08:10:44;14.30;;;9.40;;
67162;SDS011;54092;53.088;8.850;2023-06-26T08:13:10;15.02;;;9.57;;
67162;SDS011;54092;53.088;8.850;2023-06-26T08:15:35;17.15;;;10.68;;
67162;SDS011;54092;53.088;8.850;2023-06-26T08:18:01;16.08;;;10.27;;
67162;SDS011;54092;53.088;8.850;2023-06-26T08:20:26;13.63;;;9.60;;
67162;SDS011;54092;53.088;8.850;2023-06-26T08:22:53;16.65;;;9.40;;
67162;SDS011;54092;53.088;8.850;2023-06-26T08:25:19;13.77;;;9.32;;
67162;SDS011;54092;53.088;8.850;2023-06-26T08:27:45;13.43;;;8.90;;
67162;SDS011;54092;53.088;8.850;2023-06-26T08:30:11;13.85;;;8.75;;
67162;SDS011;54092;53.088;8.850;2023-06-26T08:32:36;14.07;;;8.32;;
67162;SDS011;54092;53.088;8.850;2023-06-26T08:35:02;11.20;;;7.57;;
67162;SDS011;54092;53.088;8.850;2023-06-26T08:37:28;13.20;;;7.43;;
67162;SDS011;54092;53.088;8.850;2023-06-26T08:39:53;18.63;;;8.30;;
67162;SDS011;54092;53.088;8.850;2023-06-26T08:42:19;13.90;;;8.32;;
67162;SDS011;54092;53.088;8.850;2023-06-26T08:44:44;12.07;;;8.35;;
67162;SDS011;54092;53.088;8.850;2023-06-26T08:47:11;11.73;;;8.32;;
67162;SDS011;54092;53.088;8.850;2023-06-26T08:49:49;16.30;;;8.05;;
67162;SDS011;54092;53.088;8.850;2023-06-26T08:52:23;17.35;;;8.45;;
67162;SDS011;54092;53.088;8.850;2023-06-26T08:54:54;19.73;;;8.82;;
67162;SDS011;54092;53.088;8.850;2023-06-26T08:57:23;13.70;;;8.68;;
67162;SDS011;54092;53.088;8.850;2023-06-26T08:59:51;15.20;;;9.05;;
67162;SDS011;54092;53.088;8.850;2023-06-26T09:02:17;17.90;;;10.07;;
67162;SDS011;54092;53.088;8.850;2023-06-26T09:04:43;16.33;;;10.05;;
67162;SDS011;54092;53.088;8.850;2023-06-26T09:07:09;16.45;;;10.88;;
67162;SDS011;54092;53.088;8.850;2023-06-26T09:09:35;20.40;;;11.70;;
67162;SDS011;54092;53.088;8.850;2023-06-26T09:12:01;16.95;;;11.45;;
67162;SDS011;54092;53.088;8.850;2023-06-26T09:14:27;22.73;;;14.02;;
67162;SDS011;54092;53.088;8.850;2023-06-26T09:16:54;21.55;;;12.98;;
67162;SDS011;54092;53.088;8.850;2023-06-26T09:19:20;22.65;;;12.77;;
67162;SDS011;54092;53.088;8.850;2023-06-26T09:21:45;23.08;;;14.57;;
67162;SDS011;54092;53.088;8.850;2023-06-26T09:26:41;17.88;;;11.95;;
67162;SDS011;54092;53.088;8.850;2023-06-26T09:29:06;17.13;;;11.20;;
67162;SDS011;54092;53.088;8.850;2023-06-26T09:31:33;16.33;;;8.80;;
67162;SDS011;54092;53.088;8.850;2023-06-26T09:34:01;18.30;;;8.80;;
67162;SDS011;54092;53.088;8.850;2023-06-26T09:36:28;15.35;;;7.72;;
67162;SDS011;54092;53.088;8.850;2023-06-26T09:39:01;13.93;;;7.40;;
67162;SDS011;54092;53.088;8.850;2023-06-26T09:41:29;13.48;;;6.45;;
67162;SDS011;54092;53.088;8.850;2023-06-26T09:43:56;11.43;;;5.78;;
67162;SDS011;54092;53.088;8.850;2023-06-26T09:46:26;10.25;;;6.00;;
67162;SDS011;54092;53.088;8.850;2023-06-26T09:49:01;12.95;;;5.13;;
67162;SDS011;54092;53.088;8.850;2023-06-26T09:51:29;10.10;;;5.70;;
67162;SDS011;54092;53.088;8.850;2023-06-26T09:53:56;10.88;;;5.20;;
67162;SDS011;54092;53.088;8.850;2023-06-26T09:56:21;14.45;;;5.78;;
67162;SDS011;54092;53.088;8.850;2023-06-26T09:58:47;11.20;;;5.32;;
67162;SDS011;54092;53.088;8.850;2023-06-26T10:01:13;7.75;;;4.40;;
67162;SDS011;54092;53.088;8.850;2023-06-26T10:03:39;7.97;;;4.38;;
67162;SDS011;54092;53.088;8.850;2023-06-26T10:06:05;7.90;;;3.72;;
67162;SDS011;54092;53.088;8.850;2023-06-26T10:08:34;8.40;;;3.72;;
67162;SDS011;54092;53.088;8.850;2023-06-26T10:11:00;7.43;;;3.33;;
67162;SDS011;54092;53.088;8.850;2023-06-26T10:13:27;7.22;;;3.35;;
67162;SDS011;54092;53.088;8.850;2023-06-26T10:16:00;8.90;;;3.83;;
67162;SDS011;54092;53.088;8.850;2023-06-26T10:18:26;11.23;;;3.58;;
67162;SDS011;54092;53.088;8.850;2023-06-26T10:20:54;9.40;;;3.97;;
67162;SDS011;54092;53.088;8.850;2023-06-26T10:23:21;9.82;;;3.70;;
67162;SDS011;54092;53.088;8.850;2023-06-26T10:28:16;9.27;;;3.70;;
67162;SDS011;54092;53.088;8.850;2023-06-26T10:30:43;5.45;;;2.83;;
67162;SDS011;54092;53.088;8.850;2023-06-26T10:33:11;6.93;;;3.03;;
67162;SDS011;54092;53.088;8.850;2023-06-26T10:35:44;7.03;;;2.90;;
67162;SDS011;54092;53.088;8.850;2023-06-26T10:38:10;6.20;;;2.60;;
67162;SDS011;54092;53.088;8.850;2023-06-26T10:40:45;7.18;;;2.75;;
67162;SDS011;54092;53.088;8.850;2023-06-26T10:43:13;8.38;;;2.67;;
67162;SDS011;54092;53.088;8.850;2023-06-26T10:45:46;8.10;;;2.80;;
67162;SDS011;54092;53.088;8.850;2023-06-26T10:48:17;8.23;;;2.70;;
67162;SDS011;54092;53.088;8.850;2023-06-26T10:50:43;7.57;;;2.90;;
67162;SDS011;54092;53.088;8.850;2023-06-26T10:56:00;9.40;;;2.80;;
67162;SDS011;54092;53.088;8.850;2023-06-26T10:58:30;7.88;;;2.33;;
67162;SDS011;54092;53.088;8.850;2023-06-26T11:04:08;6.22;;;2.22;;
67162;SDS011;54092;53.088;8.850;2023-06-26T11:06:35;7.47;;;3.58;;
67162;SDS011;54092;53.088;8.850;2023-06-26T11:14:16;8.18;;;2.42;;
67162;SDS011;54092;53.088;8.850;2023-06-26T11:16:43;8.75;;;2.50;;
67162;SDS011;54092;53.088;8.850;2023-06-26T11:19:12;4.05;;;2.10;;
67162;SDS011;54092;53.088;8.850;2023-06-26T11:21:39;7.63;;;2.38;;
67162;SDS011;54092;53.088;8.850;2023-06-26T11:24:08;6.07;;;2.45;;
67162;SDS011;54092;53.088;8.850;2023-06-26T11:26:38;9.70;;;2.72;;
67162;SDS011;54092;53.088;8.850;2023-06-26T11:29:04;5.60;;;2.45;;
67162;SDS011;54092;53.088;8.850;2023-06-26T11:31:30;6.25;;;2.33;;
67162;SDS011;54092;53.088;8.850;2023-06-26T11:33:58;6.65;;;2.70;;
67162;SDS011;54092;53.088;8.850;2023-06-26T11:36:26;9.07;;;2.30;;
67162;SDS011;54092;53.088;8.850;2023-06-26T11:38:53;6.60;;;2.58;;
67162;SDS011;54092;53.088;8.850;2023-06-26T11:41:26;6.43;;;2.65;;
67162;SDS011;54092;53.088;8.850;2023-06-26T11:43:53;5.60;;;2.40;;
67162;SDS011;54092;53.088;8.850;2023-06-26T11:46:19;6.53;;;2.35;;
67162;SDS011;54092;53.088;8.850;2023-06-26T11:48:46;5.80;;;2.35;;
67162;SDS011;54092;53.088;8.850;2023-06-26T11:51:12;8.15;;;2.47;;
67162;SDS011;54092;53.088;8.850;2023-06-26T11:53:40;6.35;;;2.22;;
67162;SDS011;54092;53.088;8.850;2023-06-26T11:56:08;7.38;;;2.50;;
67162;SDS011;54092;53.088;8.850;2023-06-26T11:58:56;4.15;;;2.22;;
67162;SDS011;54092;53.088;8.850;2023-06-26T12:01:43;5.32;;;2.70;;
67162;SDS011;54092;53.088;8.850;2023-06-26T12:04:10;6.13;;;2.38;;
67162;SDS011;54092;53.088;8.850;2023-06-26T12:06:37;6.78;;;2.53;;
67162;SDS011;54092;53.088;8.850;2023-06-26T12:09:06;5.40;;;2.30;;
67162;SDS011;54092;53.088;8.850;2023-06-26T12:11:34;5.50;;;2.58;;
67162;SDS011;54092;53.088;8.850;2023-06-26T12:14:01;5.60;;;2.50;;
67162;SDS011;54092;53.088;8.850;2023-06-26T12:16:28;6.18;;;2.42;;
67162;SDS011;54092;53.088;8.850;2023-06-26T12:18:58;5.47;;;2.50;;
67162;SDS011;54092;53.088;8.850;2023-06-26T12:24:02;5.17;;;2.40;;
67162;SDS011;54092;53.088;8.850;2023-06-26T12:26:29;6.10;;;2.40;;
67162;SDS011;54092;53.088;8.850;2023-06-26T12:29:08;8.00;;;2.85;;
67162;SDS011;54092;53.088;8.850;2023-06-26T12:31:38;6.25;;;2.53;;
67162;SDS011;54092;53.088;8.850;2023-06-26T12:34:08;6.97;;;2.60;;
67162;SDS011;54092;53.088;8.850;2023-06-26T12:36:39;4.53;;;2.50;;
67162;SDS011;54092;53.088;8.850;2023-06-26T12:39:08;6.97;;;2.80;;
67162;SDS011;54092;53.088;8.850;2023-06-26T12:41:35;5.75;;;2.50;;
67162;SDS011;54092;53.088;8.850;2023-06-26T12:44:15;5.20;;;2.55;;
67162;SDS011;54092;53.088;8.850;2023-06-26T12:46:42;7.82;;;2.80;;
67162;SDS011;54092;53.088;8.850;2023-06-26T12:49:07;6.70;;;2.60;;
67162;SDS011;54092;53.088;8.850;2023-06-26T12:51:33;5.60;;;2.30;;
67162;SDS011;54092;53.088;8.850;2023-06-26T12:53:58;9.35;;;2.78;;
67162;SDS011;54092;53.088;8.850;2023-06-26T12:56:24;6.93;;;2.38;;
67162;SDS011;54092;53.088;8.850;2023-06-26T12:58:49;5.18;;;2.40;;
67162;SDS011;54092;53.088;8.850;2023-06-26T13:01:15;6.75;;;2.45;;
67162;SDS011;54092;53.088;8.850;2023-06-26T13:03:41;5.65;;;2.35;;
67162;SDS011;54092;53.088;8.850;2023-06-26T13:06:07;6.30;;;2.67;;
67162;SDS011;54092;53.088;8.850;2023-06-26T13:08:33;5.07;;;2.50;;
67162;SDS011;54092;53.088;8.850;2023-06-26T13:10:58;4.95;;;2.53;;
67162;SDS011;54092;53.088;8.850;2023-06-26T13:13:24;5.22;;;2.55;;
67162;SDS011;54092;53.088;8.850;2023-06-26T13:15:49;5.22;;;2.50;;
67162;SDS011;54092;53.088;8.850;2023-06-26T13:18:15;7.85;;;2.65;;
67162;SDS011;54092;53.088;8.850;2023-06-26T13:20:40;4.82;;;2.30;;
67162;SDS011;54092;53.088;8.850;2023-06-26T13:23:06;6.82;;;2.72;;
67162;SDS011;54092;53.088;8.850;2023-06-26T13:25:32;8.35;;;2.95;;
67162;SDS011;54092;53.088;8.850;2023-06-26T13:27:58;7.50;;;2.50;;
67162;SDS011;54092;53.088;8.850;2023-06-26T13:30:23;5.68;;;2.60;;
67162;SDS011;54092;53.088;8.850;2023-06-26T13:32:49;7.10;;;2.80;;
67162;SDS011;54092;53.088;8.850;2023-06-26T13:35:15;6.43;;;2.65;;
67162;SDS011;54092;53.088;8.850;2023-06-26T13:37:40;5.47;;;2.92;;
67162;SDS011;54092;53.088;8.850;2023-06-26T13:40:07;5.82;;;2.65;;
67162;SDS011;54092;53.088;8.850;2023-06-26T13:42:33;5.38;;;2.50;;
67162;SDS011;54092;53.088;8.850;2023-06-26T13:45:00;7.28;;;2.83;;
67162;SDS011;54092;53.088;8.850;2023-06-26T13:47:25;5.88;;;2.47;;
67162;SDS011;54092;53.088;8.850;2023-06-26T13:49:51;8.35;;;2.90;;
67162;SDS011;54092;53.088;8.850;2023-06-26T13:52:16;6.78;;;2.67;;
67162;SDS011;54092;53.088;8.850;2023-06-26T13:54:41;7.40;;;2.75;;
67162;SDS011;54092;53.088;8.850;2023-06-26T13:57:08;10.30;;;2.78;;
67162;SDS011;54092;53.088;8.850;2023-06-26T13:59:34;7.30;;;2.95;;
67162;SDS011;54092;53.088;8.850;2023-06-26T14:02:02;4.88;;;2.40;;
67162;SDS011;54092;53.088;8.850;2023-06-26T14:04:27;7.10;;;3.00;;
67162;SDS011;54092;53.088;8.850;2023-06-26T14:06:53;7.82;;;2.90;;
67162;SDS011;54092;53.088;8.850;2023-06-26T14:09:18;8.48;;;3.17;;
67162;SDS011;54092;53.088;8.850;2023-06-26T14:11:44;5.13;;;2.70;;
67162;SDS011;54092;53.088;8.850;2023-06-26T14:14:09;6.55;;;2.50;;
67162;SDS011;54092;53.088;8.850;2023-06-26T14:16:35;7.03;;;2.78;;
67162;SDS011;54092;53.088;8.850;2023-06-26T14:19:01;6.43;;;2.60;;
67162;SDS011;54092;53.088;8.850;2023-06-26T14:21:26;4.97;;;2.70;;
67162;SDS011;54092;53.088;8.850;2023-06-26T14:23:53;5.53;;;2.47;;
67162;SDS011;54092;53.088;8.850;2023-06-26T14:26:19;6.35;;;2.80;;
67162;SDS011;54092;53.088;8.850;2023-06-26T14:28:45;6.45;;;2.60;;
67162;SDS011;54092;53.088;8.850;2023-06-26T14:31:11;9.88;;;3.55;;
67162;SDS011;54092;53.088;8.850;2023-06-26T14:33:36;5.57;;;2.78;;
67162;SDS011;54092;53.088;8.850;2023-06-26T14:36:02;5.57;;;2.97;;
67162;SDS011;54092;53.088;8.850;2023-06-26T14:38:27;8.60;;;2.90;;
67162;SDS011;54092;53.088;8.850;2023-06-26T14:40:53;5.65;;;2.55;;
67162;SDS011;54092;53.088;8.850;2023-06-26T14:43:18;7.03;;;2.60;;
67162;SDS011;54092;53.088;8.850;2023-06-26T14:45:44;7.40;;;3.33;;
67162;SDS011;54092;53.088;8.850;2023-06-26T14:48:09;6.60;;;2.53;;
67162;SDS011;54092;53.088;8.850;2023-06-26T14:50:35;5.78;;;3.00;;
67162;SDS011;54092;53.088;8.850;2023-06-26T14:53:00;9.40;;;2.60;;
67162;SDS011;54092;53.088;8.850;2023-06-26T14:55:26;6.82;;;2.53;;
67162;SDS011;54092;53.088;8.850;2023-06-26T14:57:51;7.13;;;2.80;;
67162;SDS011;54092;53.088;8.850;2023-06-26T15:00:17;6.85;;;2.60;;
67162;SDS011;54092;53.088;8.850;2023-06-26T15:02:43;4.93;;;2.30;;
67162;SDS011;54092;53.088;8.850;2023-06-26T15:05:08;6.65;;;2.78;;